createdAt,value
2022-12-31T00:01:01.664Z,100
2022-12-31T00:02:10.935Z,100
2022-12-31T00:03:21.867Z,100
2022-12-31T00:04:31.180Z,100
2022-12-31T00:05:42.359Z,100
2022-12-31T00:06:52.244Z,100
2022-12-31T00:08:02.364Z,100
2022-12-31T00:09:12.481Z,100
2022-12-31T00:10:22.601Z,100
2022-12-31T00:11:32.710Z,100
2022-12-31T00:12:41.846Z,100
2022-12-31T00:13:51.971Z,100
2022-12-31T00:15:02.092Z,100
2022-12-31T00:16:11.373Z,100
2022-12-31T00:17:22.290Z,100
2022-12-31T00:18:32.435Z,100
2022-12-31T00:19:42.559Z,100
2022-12-31T00:20:52.681Z,100
2022-12-31T00:22:02.786Z,100
2022-12-31T00:23:12.907Z,100
2022-12-31T00:24:23.028Z,100
2022-12-31T00:25:32.310Z,100
2022-12-31T00:26:43.266Z,99.9
2022-12-31T00:27:51.554Z,100
2022-12-31T00:29:02.524Z,99.8
2022-12-31T00:30:11.791Z,99.8
2022-12-31T00:31:22.752Z,99.7
2022-12-31T00:32:32.039Z,99.6
2022-12-31T00:33:42.994Z,99.7
2022-12-31T00:34:51.290Z,100
2022-12-31T00:36:02.250Z,99.8
2022-12-31T00:37:12.362Z,99.8
2022-12-31T00:38:22.446Z,99.9
2022-12-31T00:39:32.604Z,99.9
2022-12-31T00:40:42.684Z,100
2022-12-31T00:41:52.807Z,100
2022-12-31T00:43:02.949Z,100
2022-12-31T00:44:13.064Z,99.7
2022-12-31T00:45:23.180Z,100
2022-12-31T00:47:43.433Z,100
2022-12-31T00:48:52.698Z,100
2022-12-31T00:50:02.680Z,100
2022-12-31T00:51:11.963Z,99.8
2022-12-31T00:52:22.904Z,100
2022-12-31T00:53:33.026Z,100
2022-12-31T00:54:43.116Z,100
2022-12-31T00:55:52.432Z,100
2022-12-31T00:57:03.379Z,99.8
2022-12-31T00:58:13.497Z,100
2022-12-31T00:59:23.624Z,100
2022-12-31T01:00:33.728Z,100
2022-12-31T01:01:43.856Z,99.8
2022-12-31T01:02:53.127Z,99.8
2022-12-31T01:04:04.085Z,99.7
2022-12-31T01:05:14.295Z,99.6
2022-12-31T01:06:24.418Z,99.4
2022-12-31T01:07:34.557Z,99.4
2022-12-31T01:08:44.694Z,99.4
2022-12-31T01:09:54.764Z,99.4
2022-12-31T01:11:04.930Z,99.4
2022-12-31T01:12:15.030Z,99.5
2022-12-31T01:13:25.158Z,99.4
2022-12-31T01:14:34.432Z,99.4
2022-12-31T01:15:45.361Z,99.3
2022-12-31T01:16:55.501Z,99.2
2022-12-31T01:18:05.627Z,99.3
2022-12-31T01:19:15.735Z,99.4
2022-12-31T01:20:24.875Z,99.3
2022-12-31T01:21:34.986Z,98.9
2022-12-31T01:22:44.268Z,99.1
2022-12-31T01:23:55.223Z,99.4
2022-12-31T01:25:05.594Z,99.3
2022-12-31T01:26:15.433Z,99.6
2022-12-31T01:27:25.581Z,99.5
2022-12-31T01:28:35.699Z,99.1
2022-12-31T01:29:45.827Z,99
2022-12-31T01:30:55.929Z,99
2022-12-31T01:32:06.065Z,99.1
2022-12-31T01:33:16.166Z,99
2022-12-31T01:34:26.260Z,98.7
2022-12-31T01:35:35.419Z,98.8
2022-12-31T01:36:44.706Z,98.9
2022-12-31T01:37:54.816Z,99.1
2022-12-31T01:39:05.776Z,99.3
2022-12-31T01:40:15.064Z,99.4
2022-12-31T01:41:26.019Z,99.4
2022-12-31T01:42:36.128Z,99.2
2022-12-31T01:43:46.246Z,99.3
2022-12-31T01:44:55.526Z,99.2
2022-12-31T01:46:06.490Z,99.3
2022-12-31T01:47:16.835Z,99
2022-12-31T01:48:26.720Z,99.6
2022-12-31T01:49:36.834Z,99.6
2022-12-31T01:50:45.938Z,100
2022-12-31T01:51:56.088Z,100
2022-12-31T01:53:06.187Z,100
2022-12-31T01:54:15.484Z,100
2022-12-31T01:55:26.441Z,100
2022-12-31T01:57:46.647Z,100
2022-12-31T01:58:55.952Z,100
2022-12-31T02:00:06.912Z,100
2022-12-31T02:01:17.030Z,100
2022-12-31T02:02:27.127Z,100
2022-12-31T02:03:37.273Z,100
2022-12-31T02:04:47.349Z,100
2022-12-31T02:05:56.485Z,100
2022-12-31T02:07:06.642Z,100
2022-12-31T02:08:16.723Z,100
2022-12-31T02:09:26.869Z,100
2022-12-31T02:10:36.154Z,100
2022-12-31T02:11:47.113Z,100
2022-12-31T02:12:57.219Z,100
2022-12-31T02:14:07.343Z,100
2022-12-31T02:15:17.468Z,100
2022-12-31T02:16:27.809Z,100
2022-12-31T02:17:37.699Z,100
2022-12-31T02:18:47.824Z,100
2022-12-31T02:19:57.903Z,100
2022-12-31T02:21:07.294Z,100
2022-12-31T02:22:17.411Z,100
2022-12-31T02:23:27.265Z,100
2022-12-31T02:24:36.587Z,100
2022-12-31T02:25:47.501Z,100
2022-12-31T02:26:56.806Z,100
2022-12-31T02:28:07.771Z,100
2022-12-31T02:29:17.052Z,100
2022-12-31T02:30:28.019Z,100
2022-12-31T02:31:37.276Z,100
2022-12-31T02:32:48.247Z,100
2022-12-31T02:33:58.325Z,100
2022-12-31T02:35:07.633Z,100
2022-12-31T02:36:16.770Z,99.8
2022-12-31T02:37:27.705Z,100
2022-12-31T02:38:37.844Z,100
2022-12-31T02:39:47.969Z,100
2022-12-31T02:40:57.244Z,100
2022-12-31T02:42:08.213Z,100
2022-12-31T02:43:17.484Z,100
2022-12-31T02:44:27.597Z,100
2022-12-31T02:45:38.551Z,100
2022-12-31T02:46:48.677Z,100
2022-12-31T02:47:57.951Z,100
2022-12-31T02:49:08.905Z,100
2022-12-31T02:51:29.148Z,100
2022-12-31T02:52:37.432Z,100
2022-12-31T02:53:48.369Z,100
2022-12-31T02:54:57.670Z,100
2022-12-31T02:56:08.599Z,100
2022-12-31T02:57:18.721Z,100
2022-12-31T02:58:28.845Z,100
2022-12-31T02:59:38.984Z,100
2022-12-31T03:00:49.074Z,100
2022-12-31T03:01:58.377Z,100
2022-12-31T03:03:09.304Z,100
2022-12-31T03:04:18.608Z,100
2022-12-31T03:05:29.567Z,100
2022-12-31T03:06:39.704Z,100
2022-12-31T03:07:48.819Z,100
2022-12-31T03:08:58.097Z,100
2022-12-31T03:10:08.209Z,100
2022-12-31T03:11:19.181Z,99.8
2022-12-31T03:12:29.303Z,100
2022-12-31T03:13:39.411Z,99.8
2022-12-31T03:14:49.534Z,100
2022-12-31T03:15:58.814Z,99.8
2022-12-31T03:17:09.775Z,99.8
2022-12-31T03:18:19.884Z,99.8
2022-12-31T03:19:29.165Z,99.8
2022-12-31T03:21:50.235Z,99.5
2022-12-31T03:22:59.338Z,99.3
2022-12-31T03:24:09.492Z,100
2022-12-31T03:25:19.604Z,100
2022-12-31T03:26:29.725Z,100
2022-12-31T03:27:38.995Z,100
2022-12-31T03:28:49.936Z,100
2022-12-31T03:29:59.241Z,100
2022-12-31T03:31:10.200Z,100
2022-12-31T03:32:20.285Z,100
2022-12-31T03:33:29.591Z,100
2022-12-31T03:34:39.706Z,100
2022-12-31T03:35:50.670Z,100
2022-12-31T03:37:00.754Z,100
2022-12-31T03:38:09.888Z,100
2022-12-31T03:39:20.008Z,100
2022-12-31T03:40:30.163Z,100
2022-12-31T03:41:39.435Z,100
2022-12-31T03:42:50.392Z,100
2022-12-31T03:44:00.516Z,100
2022-12-31T03:45:10.630Z,100
2022-12-31T03:46:20.755Z,100
2022-12-31T03:47:30.864Z,100
2022-12-31T03:49:51.067Z,100
2022-12-31T03:51:00.381Z,100
2022-12-31T03:52:11.567Z,100
2022-12-31T03:53:19.620Z,100
2022-12-31T03:54:29.749Z,100
2022-12-31T03:55:40.703Z,100
2022-12-31T03:56:50.824Z,100
2022-12-31T03:58:00.914Z,100
2022-12-31T03:59:11.053Z,100
2022-12-31T04:00:20.327Z,100
2022-12-31T04:01:31.301Z,100
2022-12-31T04:02:41.405Z,100
2022-12-31T04:03:51.527Z,100
2022-12-31T04:05:00.800Z,100
2022-12-31T04:06:10.911Z,100
2022-12-31T04:07:21.888Z,100
2022-12-31T04:08:31.018Z,100
2022-12-31T04:09:41.128Z,100
2022-12-31T04:10:51.224Z,100
2022-12-31T04:12:00.529Z,100
2022-12-31T04:13:11.494Z,100
2022-12-31T04:14:21.569Z,100
2022-12-31T04:15:31.721Z,100
2022-12-31T04:16:40.998Z,100
2022-12-31T04:17:51.106Z,100
2022-12-31T04:19:02.301Z,100
2022-12-31T04:20:12.159Z,100
2022-12-31T04:21:22.309Z,100
2022-12-31T04:22:32.409Z,100
2022-12-31T04:23:40.728Z,100
2022-12-31T04:24:51.677Z,100
2022-12-31T04:26:00.948Z,100
2022-12-31T04:27:11.926Z,100
2022-12-31T04:28:22.007Z,100
2022-12-31T04:29:31.179Z,100
2022-12-31T04:30:41.293Z,100
2022-12-31T04:31:51.416Z,100
2022-12-31T04:33:01.523Z,100
2022-12-31T04:34:11.619Z,100
2022-12-31T04:35:20.920Z,100
2022-12-31T04:36:31.875Z,100
2022-12-31T04:37:41.146Z,100
2022-12-31T04:38:52.126Z,100
2022-12-31T04:40:02.239Z,100
2022-12-31T04:41:12.360Z,100
2022-12-31T04:42:22.433Z,100
2022-12-31T04:43:32.584Z,100
2022-12-31T04:44:41.724Z,100
2022-12-31T04:45:51.840Z,100
2022-12-31T04:47:01.105Z,100
2022-12-31T04:48:12.045Z,100
2022-12-31T04:49:21.346Z,100
2022-12-31T04:50:32.305Z,100
2022-12-31T04:51:41.572Z,100
2022-12-31T04:52:52.550Z,100
2022-12-31T04:54:01.814Z,100
2022-12-31T04:55:12.787Z,100
2022-12-31T04:56:22.052Z,100
2022-12-31T04:57:32.981Z,100
2022-12-31T04:58:43.134Z,100
2022-12-31T04:59:52.240Z,100
2022-12-31T05:01:01.541Z,100
2022-12-31T05:02:12.503Z,100
2022-12-31T05:03:22.625Z,100
2022-12-31T05:04:32.970Z,100
2022-12-31T05:05:42.001Z,100
2022-12-31T05:06:52.974Z,100
2022-12-31T05:08:03.059Z,100
2022-12-31T05:09:13.181Z,100
2022-12-31T05:10:23.302Z,100
2022-12-31T05:11:33.665Z,100
2022-12-31T05:12:42.706Z,100
2022-12-31T05:13:53.687Z,100
2022-12-31T05:15:02.814Z,100
2022-12-31T05:16:12.936Z,100
2022-12-31T05:17:23.030Z,100
2022-12-31T05:18:33.391Z,100
2022-12-31T05:19:43.301Z,100
2022-12-31T05:20:53.370Z,100
2022-12-31T05:22:03.520Z,100
2022-12-31T05:23:13.611Z,100
2022-12-31T05:25:33.881Z,100
2022-12-31T05:26:43.142Z,100
2022-12-31T05:27:54.113Z,100
2022-12-31T05:29:04.195Z,100
2022-12-31T05:30:13.366Z,100
2022-12-31T05:31:22.631Z,100
2022-12-31T05:32:33.580Z,100
2022-12-31T05:33:43.724Z,100
2022-12-31T05:34:53.803Z,100
2022-12-31T05:36:03.093Z,100
2022-12-31T05:37:14.073Z,100
2022-12-31T05:38:23.333Z,100
2022-12-31T05:39:34.272Z,100
2022-12-31T05:40:44.436Z,100
2022-12-31T05:41:54.538Z,100
2022-12-31T05:43:03.804Z,100
2022-12-31T05:44:14.778Z,100
2022-12-31T05:45:25.020Z,100
2022-12-31T05:46:35.137Z,100
2022-12-31T05:47:44.397Z,100
2022-12-31T05:48:55.366Z,100
2022-12-31T05:50:05.455Z,100
2022-12-31T05:51:15.571Z,100
2022-12-31T05:52:24.881Z,100
2022-12-31T05:53:36.065Z,100
2022-12-31T05:54:45.107Z,100
2022-12-31T05:55:56.049Z,100
2022-12-31T05:57:06.188Z,100
2022-12-31T05:58:16.308Z,100
2022-12-31T05:59:25.579Z,100
2022-12-31T06:00:35.572Z,100
2022-12-31T06:01:44.827Z,100
2022-12-31T06:02:56.016Z,100
2022-12-31T06:04:05.883Z,100
2022-12-31T06:05:16.257Z,100
2022-12-31T06:06:26.130Z,100
2022-12-31T06:07:36.265Z,100
2022-12-31T06:08:46.353Z,100
2022-12-31T06:09:56.485Z,100
2022-12-31T06:11:05.779Z,100
2022-12-31T06:12:16.970Z,100
2022-12-31T06:13:26.000Z,100
2022-12-31T06:14:36.952Z,100
2022-12-31T06:15:46.116Z,100
2022-12-31T06:16:55.375Z,100
2022-12-31T06:18:06.354Z,100
2022-12-31T06:19:16.429Z,100
2022-12-31T06:20:26.556Z,100
2022-12-31T06:21:36.706Z,100
2022-12-31T06:22:45.957Z,100
2022-12-31T06:23:56.933Z,100
2022-12-31T06:25:06.197Z,100
2022-12-31T06:26:17.169Z,100
2022-12-31T06:27:27.298Z,100
2022-12-31T06:28:37.386Z,100
2022-12-31T06:29:47.526Z,100
2022-12-31T06:30:56.663Z,100
2022-12-31T06:32:05.921Z,100
2022-12-31T06:33:16.863Z,100
2022-12-31T06:34:26.981Z,100
2022-12-31T06:35:37.131Z,100
2022-12-31T06:36:47.252Z,100
2022-12-31T06:37:57.342Z,100
2022-12-31T06:39:06.622Z,100
2022-12-31T06:40:17.596Z,100
2022-12-31T06:41:26.863Z,100
2022-12-31T06:42:37.829Z,100
2022-12-31T06:43:47.950Z,100
2022-12-31T06:44:58.065Z,100
2022-12-31T06:46:06.352Z,100
2022-12-31T06:47:17.334Z,100
2022-12-31T06:48:27.404Z,100
2022-12-31T06:49:37.569Z,100
2022-12-31T06:50:47.670Z,100
2022-12-31T06:51:57.756Z,100
2022-12-31T06:53:07.052Z,100
2022-12-31T06:54:18.031Z,100
2022-12-31T06:55:27.295Z,100
2022-12-31T06:56:38.261Z,100
2022-12-31T06:57:47.534Z,100
2022-12-31T06:58:58.474Z,100
2022-12-31T07:00:08.615Z,100
2022-12-31T07:01:17.753Z,100
2022-12-31T07:02:27.844Z,100
2022-12-31T07:03:37.134Z,100
2022-12-31T07:04:48.111Z,100
2022-12-31T07:05:58.188Z,100
2022-12-31T07:07:07.477Z,100
2022-12-31T07:08:18.462Z,100
2022-12-31T07:09:27.711Z,100
2022-12-31T07:10:38.705Z,100
2022-12-31T07:11:48.775Z,100
2022-12-31T07:12:58.927Z,100
2022-12-31T07:14:09.266Z,100
2022-12-31T07:15:19.134Z,100
2022-12-31T07:16:27.450Z,100
2022-12-31T07:17:38.379Z,100
2022-12-31T07:18:48.532Z,100
2022-12-31T07:19:58.867Z,100
2022-12-31T07:21:07.906Z,100
2022-12-31T07:22:18.886Z,100
2022-12-31T07:23:28.153Z,100
2022-12-31T07:24:39.089Z,100
2022-12-31T07:25:49.242Z,100
2022-12-31T07:26:59.362Z,100
2022-12-31T07:28:08.618Z,100
2022-12-31T07:29:19.570Z,100
2022-12-31T07:30:29.687Z,100
2022-12-31T07:31:39.065Z,100
2022-12-31T07:32:48.102Z,100
2022-12-31T07:33:59.084Z,100
2022-12-31T07:35:09.172Z,100
2022-12-31T07:36:19.324Z,100
2022-12-31T07:37:28.576Z,100
2022-12-31T07:38:39.514Z,100
2022-12-31T07:39:48.803Z,100
2022-12-31T07:40:59.799Z,100
2022-12-31T07:42:09.041Z,100
2022-12-31T07:43:20.245Z,100
2022-12-31T07:44:30.104Z,100
2022-12-31T07:45:40.256Z,100
2022-12-31T07:46:49.390Z,100
2022-12-31T07:47:59.513Z,100
2022-12-31T07:49:09.637Z,100
2022-12-31T07:50:19.760Z,100
2022-12-31T07:51:29.834Z,100
2022-12-31T07:52:39.977Z,100
2022-12-31T07:53:50.096Z,100
2022-12-31T07:55:00.217Z,100
2022-12-31T07:56:10.298Z,100
2022-12-31T07:57:20.461Z,100
2022-12-31T07:58:30.533Z,100
2022-12-31T07:59:40.690Z,100
2022-12-31T08:00:49.953Z,100
2022-12-31T08:01:59.906Z,100
2022-12-31T08:03:09.202Z,100
2022-12-31T08:04:20.189Z,100
2022-12-31T08:05:30.288Z,100
2022-12-31T08:06:40.377Z,100
2022-12-31T08:07:50.533Z,100
2022-12-31T08:09:00.653Z,100
2022-12-31T08:10:10.728Z,100
2022-12-31T08:11:20.889Z,100
2022-12-31T08:12:30.998Z,100
2022-12-31T08:13:41.091Z,100
2022-12-31T08:14:50.371Z,100
2022-12-31T08:16:01.577Z,100
2022-12-31T08:17:09.619Z,100
2022-12-31T08:18:20.609Z,100
2022-12-31T08:19:30.718Z,100
2022-12-31T08:20:40.806Z,100
2022-12-31T08:21:50.107Z,100
2022-12-31T08:23:01.090Z,100
2022-12-31T08:24:10.184Z,100
2022-12-31T08:25:19.470Z,100
2022-12-31T08:26:30.454Z,100
2022-12-31T08:27:40.583Z,100
2022-12-31T08:28:49.819Z,100
2022-12-31T08:30:00.818Z,100
2022-12-31T08:31:10.060Z,100
2022-12-31T08:32:21.266Z,100
2022-12-31T08:33:31.131Z,100
2022-12-31T08:34:41.274Z,100
2022-12-31T08:35:51.394Z,100
2022-12-31T08:37:01.506Z,100
2022-12-31T08:38:10.763Z,100
2022-12-31T08:39:20.980Z,100
2022-12-31T08:40:30.893Z,100
2022-12-31T08:41:40.998Z,100
2022-12-31T08:42:51.086Z,100
2022-12-31T08:44:01.240Z,100
2022-12-31T08:45:11.325Z,100
2022-12-31T08:46:21.465Z,100
2022-12-31T08:47:31.597Z,100
2022-12-31T08:48:41.667Z,100
2022-12-31T08:51:01.936Z,100
2022-12-31T08:52:12.062Z,100
2022-12-31T08:53:22.181Z,100
2022-12-31T08:54:31.308Z,100
2022-12-31T08:55:41.427Z,100
2022-12-31T08:58:01.663Z,100
2022-12-31T08:59:11.792Z,100
2022-12-31T09:00:21.862Z,100
2022-12-31T09:01:32.017Z,100
2022-12-31T09:02:42.106Z,100
2022-12-31T09:05:02.372Z,100
2022-12-31T09:06:11.508Z,100
2022-12-31T09:07:20.653Z,100
2022-12-31T09:08:30.760Z,100
2022-12-31T09:09:40.880Z,100
2022-12-31T09:10:50.141Z,100
2022-12-31T09:12:01.338Z,100
2022-12-31T09:13:10.378Z,100
2022-12-31T09:14:21.349Z,100
2022-12-31T09:15:31.436Z,100
2022-12-31T09:16:41.821Z,100
2022-12-31T09:17:51.717Z,100
2022-12-31T09:19:00.854Z,100
2022-12-31T09:20:11.053Z,100
2022-12-31T09:21:21.204Z,100
2022-12-31T09:22:30.459Z,100
2022-12-31T09:23:41.450Z,100
2022-12-31T09:24:51.556Z,100
2022-12-31T09:26:01.893Z,100
2022-12-31T09:27:10.924Z,100
2022-12-31T09:28:21.887Z,100
2022-12-31T09:29:31.994Z,100
2022-12-31T09:30:42.149Z,100
2022-12-31T09:31:51.409Z,100
2022-12-31T09:33:02.392Z,100
2022-12-31T09:34:12.497Z,100
2022-12-31T09:35:21.854Z,100
2022-12-31T09:36:31.755Z,100
2022-12-31T09:37:41.874Z,100
2022-12-31T09:38:51.121Z,100
2022-12-31T09:40:02.102Z,100
2022-12-31T09:41:12.225Z,100
2022-12-31T09:42:22.351Z,100
2022-12-31T09:43:32.461Z,100
2022-12-31T09:44:42.799Z,100
2022-12-31T09:45:52.699Z,100
2022-12-31T09:47:02.810Z,100
2022-12-31T09:48:12.929Z,100
2022-12-31T09:49:23.011Z,100
2022-12-31T09:50:32.144Z,100
2022-12-31T09:51:42.269Z,100
2022-12-31T09:52:52.414Z,100
2022-12-31T09:54:02.539Z,100
2022-12-31T09:55:12.659Z,100
2022-12-31T09:57:32.853Z,100
2022-12-31T09:58:43.221Z,100
2022-12-31T09:59:53.124Z,100
2022-12-31T10:01:03.464Z,100
2022-12-31T10:02:13.364Z,100
2022-12-31T10:03:23.447Z,100
2022-12-31T10:04:33.590Z,100
2022-12-31T10:05:42.947Z,100
2022-12-31T10:06:52.843Z,100
2022-12-31T10:08:02.926Z,100
2022-12-31T10:09:12.214Z,100
2022-12-31T10:10:23.204Z,100
2022-12-31T10:11:33.283Z,100
2022-12-31T10:12:43.400Z,100
2022-12-31T10:13:52.678Z,100
2022-12-31T10:15:03.667Z,100
2022-12-31T10:16:13.785Z,100
2022-12-31T10:17:23.901Z,100
2022-12-31T10:18:33.146Z,100
2022-12-31T10:19:44.135Z,100
2022-12-31T10:20:53.511Z,100
2022-12-31T10:22:03.626Z,100
2022-12-31T10:23:14.621Z,100
2022-12-31T10:24:24.737Z,100
2022-12-31T10:25:34.845Z,100
2022-12-31T10:26:44.941Z,100
2022-12-31T10:27:54.219Z,100
2022-12-31T10:29:05.168Z,100
2022-12-31T10:30:14.451Z,100
2022-12-31T10:31:25.444Z,100
2022-12-31T10:32:35.521Z,100
2022-12-31T10:33:44.802Z,100
2022-12-31T10:34:55.791Z,100
2022-12-31T10:36:04.928Z,100
2022-12-31T10:37:15.007Z,100
2022-12-31T10:38:25.379Z,100
2022-12-31T10:39:35.291Z,100
2022-12-31T10:40:45.399Z,100
2022-12-31T10:43:04.760Z,100
2022-12-31T10:44:15.756Z,100
2022-12-31T10:45:25.861Z,100
2022-12-31T10:46:35.114Z,100
2022-12-31T10:47:46.079Z,100
2022-12-31T10:48:55.357Z,100
2022-12-31T10:50:06.339Z,100
2022-12-31T10:51:14.607Z,100
2022-12-31T10:52:25.601Z,100
2022-12-31T10:53:35.679Z,100
2022-12-31T10:54:45.832Z,100
2022-12-31T10:55:55.937Z,100
2022-12-31T10:57:06.058Z,100
2022-12-31T10:58:15.305Z,100
2022-12-31T10:59:26.292Z,100
2022-12-31T11:00:36.373Z,100
2022-12-31T11:01:46.539Z,100
2022-12-31T11:02:55.775Z,100
2022-12-31T11:04:06.729Z,100
2022-12-31T11:05:16.891Z,100
2022-12-31T11:06:26.024Z,100
2022-12-31T11:07:36.132Z,100
2022-12-31T11:08:46.213Z,100
2022-12-31T11:09:56.383Z,100
2022-12-31T11:11:06.487Z,100
2022-12-31T11:12:16.570Z,100
2022-12-31T11:13:26.689Z,100
2022-12-31T11:14:36.843Z,100
2022-12-31T11:15:46.962Z,100
2022-12-31T11:16:57.088Z,100
2022-12-31T11:18:07.158Z,100
2022-12-31T11:19:17.315Z,100
2022-12-31T11:20:27.442Z,100
2022-12-31T11:21:36.567Z,100
2022-12-31T11:22:46.647Z,100
2022-12-31T11:23:56.802Z,100
2022-12-31T11:25:06.917Z,100
2022-12-31T11:26:17.003Z,100
2022-12-31T11:27:27.166Z,100
2022-12-31T11:28:37.271Z,100
2022-12-31T11:29:47.364Z,100
2022-12-31T11:30:57.505Z,100
2022-12-31T11:32:07.588Z,100
2022-12-31T11:33:17.755Z,100
2022-12-31T11:34:28.072Z,100
2022-12-31T11:35:37.937Z,100
2022-12-31T11:36:47.073Z,100
2022-12-31T11:37:57.227Z,100
2022-12-31T11:39:07.315Z,100
2022-12-31T11:40:17.459Z,100
2022-12-31T11:41:27.579Z,100
2022-12-31T11:42:37.662Z,100
2022-12-31T11:43:47.815Z,100
2022-12-31T11:44:57.931Z,100
2022-12-31T11:46:08.264Z,100
2022-12-31T11:47:18.131Z,100
2022-12-31T11:48:28.255Z,100
2022-12-31T11:49:38.382Z,100
2022-12-31T11:50:48.492Z,100
2022-12-31T11:51:56.777Z,100
2022-12-31T11:53:07.736Z,100
2022-12-31T11:54:17.860Z,100
2022-12-31T11:55:27.972Z,100
2022-12-31T11:56:38.000Z,100
2022-12-31T11:57:48.216Z,100
2022-12-31T11:58:57.483Z,100
2022-12-31T12:00:08.443Z,100
2022-12-31T12:01:18.816Z,100
2022-12-31T12:02:28.674Z,100
2022-12-31T12:03:38.800Z,100
2022-12-31T12:04:49.168Z,100
2022-12-31T12:05:58.190Z,100
2022-12-31T12:07:08.445Z,100
2022-12-31T12:08:18.275Z,100
2022-12-31T12:09:28.661Z,100
2022-12-31T12:10:37.680Z,100
2022-12-31T12:11:48.913Z,100
2022-12-31T12:12:57.923Z,100
2022-12-31T12:14:08.873Z,100
2022-12-31T12:15:18.146Z,100
2022-12-31T12:16:29.110Z,100
2022-12-31T12:17:39.225Z,100
2022-12-31T12:18:48.366Z,100
2022-12-31T12:19:58.481Z,100
2022-12-31T12:21:08.601Z,100
2022-12-31T12:22:18.710Z,100
2022-12-31T12:23:28.835Z,100
2022-12-31T12:24:38.953Z,100
2022-12-31T12:25:49.061Z,100
2022-12-31T12:26:59.190Z,100
2022-12-31T12:28:09.303Z,100
2022-12-31T12:29:18.593Z,100
2022-12-31T12:30:29.543Z,100
2022-12-31T12:31:39.657Z,100
2022-12-31T12:32:49.782Z,100
2022-12-31T12:33:58.083Z,100
2022-12-31T12:35:09.021Z,100
2022-12-31T12:36:18.304Z,100
2022-12-31T12:37:29.272Z,100
2022-12-31T12:38:39.379Z,100
2022-12-31T12:39:49.495Z,100
2022-12-31T12:40:59.620Z,100
2022-12-31T12:42:08.898Z,100
2022-12-31T12:43:19.009Z,100
2022-12-31T12:44:29.970Z,100
2022-12-31T12:45:40.089Z,100
2022-12-31T12:46:50.211Z,100
2022-12-31T12:47:59.486Z,100
2022-12-31T12:49:09.449Z,100
2022-12-31T12:50:18.731Z,100
2022-12-31T12:51:29.701Z,100
2022-12-31T12:52:38.981Z,100
2022-12-31T12:53:50.181Z,100
2022-12-31T12:54:59.203Z,100
2022-12-31T12:56:10.162Z,100
2022-12-31T12:57:19.440Z,100
2022-12-31T12:58:30.388Z,100
2022-12-31T12:59:40.513Z,100
2022-12-31T13:00:50.633Z,100
2022-12-31T13:01:59.903Z,100
2022-12-31T13:03:10.865Z,100
2022-12-31T13:04:19.155Z,100
2022-12-31T13:05:30.119Z,100
2022-12-31T13:06:40.236Z,100
2022-12-31T13:07:50.356Z,100
2022-12-31T13:09:00.462Z,100
2022-12-31T13:10:10.589Z,100
2022-12-31T13:11:20.957Z,100
2022-12-31T13:12:30.827Z,100
2022-12-31T13:13:40.099Z,100
2022-12-31T13:14:51.065Z,100
2022-12-31T13:16:00.342Z,100
2022-12-31T13:17:11.290Z,100
2022-12-31T13:18:21.413Z,100
2022-12-31T13:19:30.799Z,100
2022-12-31T13:20:40.661Z,100
2022-12-31T13:21:50.792Z,100
2022-12-31T13:23:00.903Z,100
2022-12-31T13:24:11.274Z,100
2022-12-31T13:25:20.295Z,100
2022-12-31T13:26:31.247Z,100
2022-12-31T13:27:41.369Z,100
2022-12-31T13:28:51.488Z,100
2022-12-31T13:30:00.756Z,100
2022-12-31T13:31:11.718Z,100
2022-12-31T13:32:21.846Z,100
2022-12-31T13:33:31.964Z,100
2022-12-31T13:34:41.345Z,100
2022-12-31T13:35:51.214Z,100
2022-12-31T13:37:01.319Z,100
2022-12-31T13:38:11.442Z,100
2022-12-31T13:39:20.714Z,100
2022-12-31T13:40:30.832Z,100
2022-12-31T13:41:41.794Z,100
2022-12-31T13:42:52.165Z,100
2022-12-31T13:44:01.203Z,99.7
2022-12-31T13:45:12.162Z,99.6
2022-12-31T13:46:21.432Z,99.4
2022-12-31T13:47:32.385Z,99.3
2022-12-31T13:48:42.508Z,99.3
2022-12-31T13:49:51.641Z,99.2
2022-12-31T13:51:00.920Z,99
2022-12-31T13:52:11.865Z,98.7
2022-12-31T13:53:22.248Z,98.4
2022-12-31T13:54:32.110Z,98.4
2022-12-31T13:55:42.221Z,98.4
2022-12-31T13:56:52.342Z,98.2
2022-12-31T13:58:01.626Z,97.9
2022-12-31T13:59:11.736Z,97.8
2022-12-31T14:00:22.699Z,97.6
2022-12-31T14:01:32.816Z,97.5
2022-12-31T14:02:42.938Z,97.3
2022-12-31T14:03:53.043Z,97.3
2022-12-31T14:05:02.177Z,96.8
2022-12-31T14:06:12.297Z,96.4
2022-12-31T14:07:22.415Z,96.3
2022-12-31T14:08:32.541Z,96
2022-12-31T14:09:42.645Z,96.2
2022-12-31T14:10:52.764Z,95.8
2022-12-31T14:12:02.041Z,95.6
2022-12-31T14:13:13.004Z,95.2
2022-12-31T14:14:22.279Z,94.5
2022-12-31T14:15:33.249Z,94.3
2022-12-31T14:16:43.366Z,94.3
2022-12-31T14:17:52.632Z,94.2
2022-12-31T14:19:03.600Z,94.2
2022-12-31T14:20:12.719Z,94.4
2022-12-31T14:21:22.843Z,94.9
2022-12-31T14:22:32.965Z,94.7
2022-12-31T14:23:43.085Z,94.7
2022-12-31T14:24:53.195Z,94.5
2022-12-31T14:26:03.320Z,94.4
2022-12-31T14:27:13.432Z,94.3
2022-12-31T14:28:22.711Z,94.3
2022-12-31T14:29:33.667Z,94.3
2022-12-31T14:30:43.785Z,94.8
2022-12-31T14:31:53.896Z,94.7
2022-12-31T14:33:04.021Z,94.7
2022-12-31T14:34:14.141Z,94.7
2022-12-31T14:35:23.271Z,94.7
2022-12-31T14:36:33.390Z,94.4
2022-12-31T14:37:42.660Z,94.1
2022-12-31T14:38:53.625Z,94
2022-12-31T14:40:02.904Z,94
2022-12-31T14:41:13.854Z,94.1
2022-12-31T14:42:23.983Z,94.2
2022-12-31T14:43:34.090Z,94.1
2022-12-31T14:44:43.363Z,94.3
2022-12-31T14:45:54.338Z,94.4
2022-12-31T14:47:04.447Z,94.3
2022-12-31T14:48:14.563Z,94.3
2022-12-31T14:49:23.841Z,94.5
2022-12-31T14:50:32.979Z,94.5
2022-12-31T14:51:43.933Z,94.4
2022-12-31T14:52:54.057Z,94.3
2022-12-31T14:54:02.351Z,94.5
2022-12-31T14:55:12.331Z,94.5
2022-12-31T14:56:21.477Z,94.4
2022-12-31T14:57:30.601Z,94.5
2022-12-31T14:58:40.733Z,94.8
2022-12-31T14:59:50.003Z,95.1
2022-12-31T15:01:00.113Z,95.2
2022-12-31T15:02:11.071Z,95.3
2022-12-31T15:03:21.191Z,95.3
2022-12-31T15:04:31.312Z,95.4
2022-12-31T15:05:41.429Z,95.5
2022-12-31T15:06:51.563Z,95.4
2022-12-31T15:08:00.830Z,95.6
2022-12-31T15:09:11.790Z,95.8
2022-12-31T15:10:21.053Z,95.9
2022-12-31T15:11:32.017Z,95.7
2022-12-31T15:12:41.412Z,95.6
2022-12-31T15:13:50.428Z,95.8
2022-12-31T15:15:00.541Z,96.1
2022-12-31T15:16:11.502Z,96.2
2022-12-31T15:17:21.620Z,96.2
2022-12-31T15:18:31.741Z,95.9
2022-12-31T15:19:41.861Z,95.9
2022-12-31T15:20:50.999Z,96
2022-12-31T15:23:10.257Z,95.8
2022-12-31T15:24:18.548Z,95.6
2022-12-31T15:25:29.638Z,95.8
2022-12-31T15:26:39.753Z,95.8
2022-12-31T15:27:49.882Z,95.5
2022-12-31T15:28:59.999Z,95.4
2022-12-31T15:30:10.112Z,95.8
2022-12-31T15:31:20.236Z,95.6
2022-12-31T15:32:30.340Z,95.5
2022-12-31T15:33:39.618Z,95.2
2022-12-31T15:34:49.732Z,95
2022-12-31T15:36:00.702Z,94.9
2022-12-31T15:37:10.811Z,94.5
2022-12-31T15:38:20.932Z,94.1
2022-12-31T15:39:31.048Z,93.9
2022-12-31T15:40:40.182Z,94
2022-12-31T15:41:50.554Z,93.8
2022-12-31T15:43:00.418Z,94
2022-12-31T15:44:10.546Z,94
2022-12-31T15:45:20.652Z,93.7
2022-12-31T15:46:30.776Z,93.5
2022-12-31T15:47:40.043Z,93.6
2022-12-31T15:48:51.014Z,93.8
2022-12-31T15:50:01.120Z,94
2022-12-31T15:51:11.246Z,94.4
2022-12-31T15:52:20.524Z,94.3
2022-12-31T15:53:31.477Z,94.1
2022-12-31T15:54:41.589Z,94.1
2022-12-31T15:55:50.730Z,94.2
2022-12-31T15:57:00.000Z,94.2
2022-12-31T15:58:10.965Z,94.3
2022-12-31T15:59:20.243Z,94.4
2022-12-31T16:00:31.195Z,94.5
2022-12-31T16:01:40.355Z,94.6
2022-12-31T16:02:49.484Z,94.7
2022-12-31T16:03:57.780Z,94.8
2022-12-31T16:05:07.765Z,95.3
2022-12-31T16:06:17.870Z,95.8
2022-12-31T16:07:27.994Z,96.7
2022-12-31T16:08:38.110Z,97.2
2022-12-31T16:09:48.220Z,98.1
2022-12-31T16:10:58.347Z,98.7
2022-12-31T16:12:08.462Z,99.2